sensor_id;sensor_type;location;lat;lon;timestamp;P1;durP1;ratioP1;P2;durP2;ratioP2
72569;SDS011;60594;50.204;8.844;2022-10-13T00:03:14;11.38;;;6.07;;
72569;SDS011;60594;50.204;8.844;2022-10-13T00:05:41;15.93;;;7.93;;
72569;SDS011;60594;50.204;8.844;2022-10-13T00:08:09;16.38;;;7.93;;
72569;SDS011;60594;50.204;8.844;2022-10-13T00:10:41;14.35;;;7.55;;
72569;SDS011;60594;50.204;8.844;2022-10-13T00:13:11;14.35;;;7.15;;
72569;SDS011;60594;50.204;8.844;2022-10-13T00:15:39;15.15;;;8.07;;
72569;SDS011;60594;50.204;8.844;2022-10-13T00:18:07;12.85;;;6.95;;
72569;SDS011;60594;50.204;8.844;2022-10-13T00:20:34;13.95;;;8.05;;
72569;SDS011;60594;50.204;8.844;2022-10-13T00:23:01;13.65;;;7.47;;
72569;SDS011;60594;50.204;8.844;2022-10-13T00:25:27;12.88;;;7.05;;
72569;SDS011;60594;50.204;8.844;2022-10-13T00:27:53;14.50;;;7.57;;
72569;SDS011;60594;50.204;8.844;2022-10-13T00:30:22;13.90;;;7.10;;
72569;SDS011;60594;50.204;8.844;2022-10-13T00:32:49;15.07;;;7.25;;
72569;SDS011;60594;50.204;8.844;2022-10-13T00:35:16;17.63;;;8.30;;
72569;SDS011;60594;50.204;8.844;2022-10-13T00:37:42;13.82;;;7.13;;
72569;SDS011;60594;50.204;8.844;2022-10-13T00:40:08;14.63;;;7.57;;
72569;SDS011;60594;50.204;8.844;2022-10-13T00:42:35;13.32;;;7.35;;
72569;SDS011;60594;50.204;8.844;2022-10-13T00:47:44;14.02;;;7.50;;
72569;SDS011;60594;50.204;8.844;2022-10-13T00:50:13;12.38;;;7.03;;
72569;SDS011;60594;50.204;8.844;2022-10-13T00:52:51;14.32;;;7.55;;
72569;SDS011;60594;50.204;8.844;2022-10-13T00:55:23;16.02;;;7.75;;
72569;SDS011;60594;50.204;8.844;2022-10-13T00:57:53;15.32;;;7.65;;
72569;SDS011;60594;50.204;8.844;2022-10-13T01:00:28;15.35;;;7.50;;
72569;SDS011;60594;50.204;8.844;2022-10-13T01:02:55;13.88;;;6.95;;
72569;SDS011;60594;50.204;8.844;2022-10-13T01:05:22;14.15;;;7.22;;
72569;SDS011;60594;50.204;8.844;2022-10-13T01:07:49;13.48;;;7.63;;
72569;SDS011;60594;50.204;8.844;2022-10-13T01:13:33;13.10;;;6.72;;
72569;SDS011;60594;50.204;8.844;2022-10-13T01:16:12;12.85;;;7.20;;
72569;SDS011;60594;50.204;8.844;2022-10-13T01:32:30;17.08;;;7.68;;
72569;SDS011;60594;50.204;8.844;2022-10-13T01:35:08;13.95;;;7.28;;
72569;SDS011;60594;50.204;8.844;2022-10-13T01:37:45;15.77;;;6.57;;
72569;SDS011;60594;50.204;8.844;2022-10-13T01:40:37;13.73;;;6.47;;
72569;SDS011;60594;50.204;8.844;2022-10-13T01:43:24;12.25;;;6.50;;
72569;SDS011;60594;50.204;8.844;2022-10-13T01:50:55;11.65;;;5.60;;
72569;SDS011;60594;50.204;8.844;2022-10-13T01:53:24;12.60;;;6.05;;
72569;SDS011;60594;50.204;8.844;2022-10-13T01:55:57;13.32;;;6.65;;
72569;SDS011;60594;50.204;8.844;2022-10-13T01:58:26;13.57;;;5.28;;
72569;SDS011;60594;50.204;8.844;2022-10-13T02:03:37;14.20;;;6.30;;
72569;SDS011;60594;50.204;8.844;2022-10-13T02:06:16;11.60;;;6.50;;
72569;SDS011;60594;50.204;8.844;2022-10-13T02:12:13;12.23;;;5.75;;
72569;SDS011;60594;50.204;8.844;2022-10-13T02:14:41;13.48;;;6.43;;
72569;SDS011;60594;50.204;8.844;2022-10-13T02:17:11;11.77;;;5.97;;
72569;SDS011;60594;50.204;8.844;2022-10-13T02:19:41;13.82;;;6.35;;
72569;SDS011;60594;50.204;8.844;2022-10-13T02:22:08;11.20;;;5.75;;
72569;SDS011;60594;50.204;8.844;2022-10-13T02:24:38;12.30;;;6.07;;
72569;SDS011;60594;50.204;8.844;2022-10-13T02:27:04;15.65;;;6.80;;
72569;SDS011;60594;50.204;8.844;2022-10-13T02:29:31;11.80;;;6.07;;
72569;SDS011;60594;50.204;8.844;2022-10-13T02:31:58;11.73;;;7.05;;
72569;SDS011;60594;50.204;8.844;2022-10-13T02:34:24;12.15;;;7.28;;
72569;SDS011;60594;50.204;8.844;2022-10-13T02:36:50;12.70;;;5.80;;
72569;SDS011;60594;50.204;8.844;2022-10-13T02:39:17;14.57;;;6.53;;
72569;SDS011;60594;50.204;8.844;2022-10-13T02:41:43;12.27;;;6.35;;
72569;SDS011;60594;50.204;8.844;2022-10-13T02:44:09;12.57;;;6.40;;
72569;SDS011;60594;50.204;8.844;2022-10-13T02:46:40;12.63;;;6.70;;
72569;SDS011;60594;50.204;8.844;2022-10-13T02:49:08;12.32;;;5.95;;
72569;SDS011;60594;50.204;8.844;2022-10-13T02:51:35;15.60;;;6.63;;
72569;SDS011;60594;50.204;8.844;2022-10-13T02:54:01;13.18;;;7.88;;
72569;SDS011;60594;50.204;8.844;2022-10-13T02:56:27;15.02;;;6.38;;
72569;SDS011;60594;50.204;8.844;2022-10-13T02:58:53;11.27;;;5.35;;
72569;SDS011;60594;50.204;8.844;2022-10-13T03:01:20;11.18;;;6.00;;
72569;SDS011;60594;50.204;8.844;2022-10-13T03:03:46;10.20;;;5.38;;
72569;SDS011;60594;50.204;8.844;2022-10-13T03:06:12;11.50;;;5.93;;
72569;SDS011;60594;50.204;8.844;2022-10-13T03:08:39;9.95;;;5.25;;
72569;SDS011;60594;50.204;8.844;2022-10-13T03:11:05;13.25;;;6.68;;
72569;SDS011;60594;50.204;8.844;2022-10-13T03:13:31;11.90;;;6.38;;
72569;SDS011;60594;50.204;8.844;2022-10-13T03:16:05;11.23;;;5.50;;
72569;SDS011;60594;50.204;8.844;2022-10-13T03:18:32;10.23;;;5.45;;
72569;SDS011;60594;50.204;8.844;2022-10-13T03:20:59;12.48;;;5.68;;
72569;SDS011;60594;50.204;8.844;2022-10-13T03:23:31;11.23;;;5.35;;
72569;SDS011;60594;50.204;8.844;2022-10-13T03:25:58;11.05;;;4.93;;
72569;SDS011;60594;50.204;8.844;2022-10-13T03:28:24;10.73;;;5.95;;
72569;SDS011;60594;50.204;8.844;2022-10-13T03:30:58;11.05;;;5.95;;
72569;SDS011;60594;50.204;8.844;2022-10-13T03:33:25;10.95;;;5.78;;
72569;SDS011;60594;50.204;8.844;2022-10-13T03:35:59;11.18;;;5.50;;
72569;SDS011;60594;50.204;8.844;2022-10-13T03:38:27;8.63;;;4.75;;
72569;SDS011;60594;50.204;8.844;2022-10-13T03:40:54;11.70;;;6.38;;
72569;SDS011;60594;50.204;8.844;2022-10-13T03:43:21;9.70;;;5.53;;
72569;SDS011;60594;50.204;8.844;2022-10-13T03:45:55;11.23;;;6.00;;
72569;SDS011;60594;50.204;8.844;2022-10-13T03:48:23;9.57;;;5.03;;
72569;SDS011;60594;50.204;8.844;2022-10-13T03:50:50;10.38;;;5.57;;
72569;SDS011;60594;50.204;8.844;2022-10-13T03:53:16;12.27;;;5.60;;
72569;SDS011;60594;50.204;8.844;2022-10-13T03:58:15;8.40;;;4.93;;
72569;SDS011;60594;50.204;8.844;2022-10-13T04:00:44;10.00;;;5.75;;
72569;SDS011;60594;50.204;8.844;2022-10-13T04:03:11;11.15;;;6.13;;
72569;SDS011;60594;50.204;8.844;2022-10-13T04:05:37;12.93;;;5.75;;
72569;SDS011;60594;50.204;8.844;2022-10-13T04:08:03;11.50;;;6.32;;
72569;SDS011;60594;50.204;8.844;2022-10-13T04:10:30;10.65;;;5.55;;
72569;SDS011;60594;50.204;8.844;2022-10-13T04:12:57;13.75;;;6.18;;
72569;SDS011;60594;50.204;8.844;2022-10-13T04:15:23;10.35;;;5.15;;
72569;SDS011;60594;50.204;8.844;2022-10-13T04:17:49;10.60;;;5.53;;
72569;SDS011;60594;50.204;8.844;2022-10-13T04:20:16;12.23;;;6.13;;
72569;SDS011;60594;50.204;8.844;2022-10-13T04:22:43;11.32;;;5.82;;
72569;SDS011;60594;50.204;8.844;2022-10-13T04:25:09;15.68;;;7.05;;
72569;SDS011;60594;50.204;8.844;2022-10-13T04:27:35;13.13;;;6.35;;
72569;SDS011;60594;50.204;8.844;2022-10-13T04:30:04;14.40;;;6.78;;
72569;SDS011;60594;50.204;8.844;2022-10-13T04:32:31;10.52;;;5.93;;
72569;SDS011;60594;50.204;8.844;2022-10-13T04:35:01;12.05;;;6.03;;
72569;SDS011;60594;50.204;8.844;2022-10-13T04:37:28;13.15;;;7.05;;
72569;SDS011;60594;50.204;8.844;2022-10-13T04:39:55;13.63;;;6.78;;
72569;SDS011;60594;50.204;8.844;2022-10-13T04:42:21;15.00;;;7.90;;
72569;SDS011;60594;50.204;8.844;2022-10-13T04:44:47;15.23;;;7.28;;
72569;SDS011;60594;50.204;8.844;2022-10-13T04:47:16;14.10;;;7.72;;
72569;SDS011;60594;50.204;8.844;2022-10-13T04:49:43;14.68;;;7.20;;
72569;SDS011;60594;50.204;8.844;2022-10-13T04:52:09;13.35;;;6.68;;
72569;SDS011;60594;50.204;8.844;2022-10-13T04:54:35;15.38;;;7.00;;
72569;SDS011;60594;50.204;8.844;2022-10-13T04:57:02;15.55;;;7.03;;
72569;SDS011;60594;50.204;8.844;2022-10-13T04:59:28;14.68;;;7.30;;
72569;SDS011;60594;50.204;8.844;2022-10-13T05:01:54;13.82;;;6.75;;
72569;SDS011;60594;50.204;8.844;2022-10-13T05:04:21;12.98;;;6.97;;
72569;SDS011;60594;50.204;8.844;2022-10-13T05:06:47;13.05;;;6.65;;
72569;SDS011;60594;50.204;8.844;2022-10-13T05:09:13;16.52;;;7.82;;
72569;SDS011;60594;50.204;8.844;2022-10-13T05:11:41;12.80;;;6.10;;
72569;SDS011;60594;50.204;8.844;2022-10-13T05:14:07;12.73;;;7.07;;
72569;SDS011;60594;50.204;8.844;2022-10-13T05:16:33;14.38;;;6.90;;
72569;SDS011;60594;50.204;8.844;2022-10-13T05:19:00;16.23;;;7.53;;
72569;SDS011;60594;50.204;8.844;2022-10-13T05:21:27;16.42;;;8.18;;
72569;SDS011;60594;50.204;8.844;2022-10-13T05:23:54;13.55;;;7.45;;
72569;SDS011;60594;50.204;8.844;2022-10-13T05:26:23;13.25;;;6.43;;
72569;SDS011;60594;50.204;8.844;2022-10-13T05:28:57;11.95;;;6.25;;
72569;SDS011;60594;50.204;8.844;2022-10-13T05:31:28;13.23;;;7.18;;
72569;SDS011;60594;50.204;8.844;2022-10-13T05:33:57;12.48;;;6.40;;
72569;SDS011;60594;50.204;8.844;2022-10-13T05:36:24;12.38;;;6.40;;
72569;SDS011;60594;50.204;8.844;2022-10-13T05:38:59;10.68;;;6.20;;
72569;SDS011;60594;50.204;8.844;2022-10-13T05:41:27;12.13;;;6.68;;
72569;SDS011;60594;50.204;8.844;2022-10-13T05:44:01;14.02;;;5.97;;
72569;SDS011;60594;50.204;8.844;2022-10-13T05:46:31;12.20;;;5.85;;
72569;SDS011;60594;50.204;8.844;2022-10-13T05:48:57;12.43;;;6.03;;
72569;SDS011;60594;50.204;8.844;2022-10-13T05:51:32;14.25;;;6.82;;
72569;SDS011;60594;50.204;8.844;2022-10-13T05:56:32;14.38;;;7.88;;
72569;SDS011;60594;50.204;8.844;2022-10-13T05:59:20;15.95;;;6.53;;
72569;SDS011;60594;50.204;8.844;2022-10-13T06:01:49;13.27;;;6.93;;
72569;SDS011;60594;50.204;8.844;2022-10-13T06:04:18;13.68;;;6.43;;
72569;SDS011;60594;50.204;8.844;2022-10-13T06:06:49;13.60;;;6.45;;
72569;SDS011;60594;50.204;8.844;2022-10-13T06:09:15;15.57;;;7.57;;
72569;SDS011;60594;50.204;8.844;2022-10-13T06:11:42;14.15;;;7.45;;
72569;SDS011;60594;50.204;8.844;2022-10-13T06:14:09;15.98;;;6.97;;
72569;SDS011;60594;50.204;8.844;2022-10-13T06:16:35;14.63;;;6.97;;
72569;SDS011;60594;50.204;8.844;2022-10-13T06:19:03;17.08;;;7.10;;
72569;SDS011;60594;50.204;8.844;2022-10-13T06:21:30;20.15;;;8.70;;
72569;SDS011;60594;50.204;8.844;2022-10-13T06:23:56;20.27;;;8.13;;
72569;SDS011;60594;50.204;8.844;2022-10-13T06:26:23;16.20;;;7.80;;
72569;SDS011;60594;50.204;8.844;2022-10-13T06:28:49;17.20;;;7.90;;
72569;SDS011;60594;50.204;8.844;2022-10-13T06:31:16;16.23;;;6.75;;
72569;SDS011;60594;50.204;8.844;2022-10-13T06:33:46;19.00;;;8.80;;
72569;SDS011;60594;50.204;8.844;2022-10-13T06:36:12;18.05;;;7.85;;
72569;SDS011;60594;50.204;8.844;2022-10-13T06:38:39;17.02;;;7.18;;
72569;SDS011;60594;50.204;8.844;2022-10-13T06:41:06;16.80;;;8.35;;
72569;SDS011;60594;50.204;8.844;2022-10-13T06:43:35;22.08;;;8.85;;
72569;SDS011;60594;50.204;8.844;2022-10-13T06:46:03;16.10;;;7.40;;
72569;SDS011;60594;50.204;8.844;2022-10-13T06:48:29;17.27;;;8.65;;
72569;SDS011;60594;50.204;8.844;2022-10-13T06:51:07;16.08;;;7.35;;
72569;SDS011;60594;50.204;8.844;2022-10-13T06:53:36;16.90;;;7.80;;
72569;SDS011;60594;50.204;8.844;2022-10-13T06:56:03;18.65;;;7.85;;
72569;SDS011;60594;50.204;8.844;2022-10-13T06:58:36;24.55;;;6.45;;
72569;SDS011;60594;50.204;8.844;2022-10-13T07:01:03;17.92;;;7.22;;
72569;SDS011;60594;50.204;8.844;2022-10-13T07:03:30;19.33;;;8.75;;
72569;SDS011;60594;50.204;8.844;2022-10-13T07:06:02;20.20;;;9.10;;
72569;SDS011;60594;50.204;8.844;2022-10-13T07:08:29;16.90;;;6.72;;
72569;SDS011;60594;50.204;8.844;2022-10-13T07:10:57;17.40;;;9.07;;
72569;SDS011;60594;50.204;8.844;2022-10-13T07:13:24;17.88;;;7.65;;
72569;SDS011;60594;50.204;8.844;2022-10-13T07:15:51;20.40;;;8.07;;
72569;SDS011;60594;50.204;8.844;2022-10-13T07:18:17;17.38;;;7.65;;
72569;SDS011;60594;50.204;8.844;2022-10-13T07:20:44;20.50;;;7.57;;
72569;SDS011;60594;50.204;8.844;2022-10-13T07:23:10;18.27;;;7.65;;
72569;SDS011;60594;50.204;8.844;2022-10-13T07:25:36;21.02;;;8.25;;
72569;SDS011;60594;50.204;8.844;2022-10-13T07:28:03;19.52;;;8.40;;
72569;SDS011;60594;50.204;8.844;2022-10-13T07:30:30;16.80;;;7.75;;
72569;SDS011;60594;50.204;8.844;2022-10-13T07:32:56;25.52;;;11.13;;
72569;SDS011;60594;50.204;8.844;2022-10-13T07:35:23;17.75;;;8.05;;
72569;SDS011;60594;50.204;8.844;2022-10-13T07:37:51;21.85;;;9.48;;
72569;SDS011;60594;50.204;8.844;2022-10-13T07:40:19;24.48;;;8.63;;
72569;SDS011;60594;50.204;8.844;2022-10-13T07:42:46;19.80;;;8.60;;
72569;SDS011;60594;50.204;8.844;2022-10-13T07:45:13;20.63;;;8.30;;
72569;SDS011;60594;50.204;8.844;2022-10-13T07:47:39;23.67;;;9.70;;
72569;SDS011;60594;50.204;8.844;2022-10-13T07:50:06;23.38;;;10.13;;
72569;SDS011;60594;50.204;8.844;2022-10-13T07:52:34;22.50;;;9.48;;
72569;SDS011;60594;50.204;8.844;2022-10-13T07:55:02;24.33;;;9.60;;
72569;SDS011;60594;50.204;8.844;2022-10-13T07:57:29;28.48;;;10.27;;
72569;SDS011;60594;50.204;8.844;2022-10-13T07:59:55;24.55;;;9.50;;
72569;SDS011;60594;50.204;8.844;2022-10-13T08:02:23;25.65;;;9.80;;
72569;SDS011;60594;50.204;8.844;2022-10-13T08:04:50;28.65;;;11.20;;
72569;SDS011;60594;50.204;8.844;2022-10-13T08:07:17;29.70;;;11.18;;
72569;SDS011;60594;50.204;8.844;2022-10-13T08:09:45;26.70;;;10.15;;
72569;SDS011;60594;50.204;8.844;2022-10-13T08:12:11;27.55;;;10.63;;
72569;SDS011;60594;50.204;8.844;2022-10-13T08:14:37;27.08;;;10.70;;
72569;SDS011;60594;50.204;8.844;2022-10-13T08:17:04;25.60;;;10.38;;
72569;SDS011;60594;50.204;8.844;2022-10-13T08:19:30;30.80;;;11.23;;
72569;SDS011;60594;50.204;8.844;2022-10-13T08:21:57;25.90;;;10.93;;
72569;SDS011;60594;50.204;8.844;2022-10-13T08:24:23;29.88;;;11.20;;
72569;SDS011;60594;50.204;8.844;2022-10-13T08:26:50;27.45;;;10.25;;
72569;SDS011;60594;50.204;8.844;2022-10-13T08:29:17;30.92;;;11.60;;
72569;SDS011;60594;50.204;8.844;2022-10-13T08:31:44;29.52;;;12.38;;
72569;SDS011;60594;50.204;8.844;2022-10-13T08:34:11;28.92;;;10.75;;
72569;SDS011;60594;50.204;8.844;2022-10-13T08:36:38;26.15;;;11.27;;
72569;SDS011;60594;50.204;8.844;2022-10-13T08:39:06;31.73;;;11.77;;
72569;SDS011;60594;50.204;8.844;2022-10-13T08:41:37;25.50;;;10.35;;
72569;SDS011;60594;50.204;8.844;2022-10-13T08:44:08;25.65;;;10.35;;
72569;SDS011;60594;50.204;8.844;2022-10-13T08:46:47;27.55;;;11.88;;
72569;SDS011;60594;50.204;8.844;2022-10-13T08:49:19;31.73;;;11.93;;
72569;SDS011;60594;50.204;8.844;2022-10-13T08:51:45;32.00;;;12.77;;
72569;SDS011;60594;50.204;8.844;2022-10-13T08:54:13;31.27;;;11.38;;
72569;SDS011;60594;50.204;8.844;2022-10-13T08:56:42;30.10;;;12.38;;
72569;SDS011;60594;50.204;8.844;2022-10-13T08:59:12;31.05;;;11.80;;
72569;SDS011;60594;50.204;8.844;2022-10-13T09:01:42;28.73;;;11.27;;
72569;SDS011;60594;50.204;8.844;2022-10-13T09:09:29;26.67;;;12.02;;
72569;SDS011;60594;50.204;8.844;2022-10-13T09:11:56;27.77;;;11.40;;
72569;SDS011;60594;50.204;8.844;2022-10-13T09:14:29;25.75;;;11.85;;
72569;SDS011;60594;50.204;8.844;2022-10-13T09:17:32;31.45;;;11.98;;
72569;SDS011;60594;50.204;8.844;2022-10-13T09:20:03;28.60;;;11.75;;
72569;SDS011;60594;50.204;8.844;2022-10-13T09:22:34;29.13;;;11.10;;
72569;SDS011;60594;50.204;8.844;2022-10-13T09:25:19;23.05;;;10.00;;
72569;SDS011;60594;50.204;8.844;2022-10-13T09:27:52;27.83;;;12.23;;
72569;SDS011;60594;50.204;8.844;2022-10-13T09:30:30;32.90;;;12.82;;
72569;SDS011;60594;50.204;8.844;2022-10-13T09:35:35;29.08;;;11.70;;
72569;SDS011;60594;50.204;8.844;2022-10-13T09:40:40;27.23;;;10.95;;
72569;SDS011;60594;50.204;8.844;2022-10-13T09:48:25;23.80;;;11.25;;
72569;SDS011;60594;50.204;8.844;2022-10-13T09:50:56;25.20;;;11.48;;
72569;SDS011;60594;50.204;8.844;2022-10-13T09:56:14;38.63;;;16.20;;
72569;SDS011;60594;50.204;8.844;2022-10-13T09:58:52;33.40;;;12.80;;
72569;SDS011;60594;50.204;8.844;2022-10-13T10:01:33;36.42;;;12.80;;
72569;SDS011;60594;50.204;8.844;2022-10-13T10:04:06;27.92;;;13.23;;
72569;SDS011;60594;50.204;8.844;2022-10-13T10:06:36;28.42;;;13.10;;
72569;SDS011;60594;50.204;8.844;2022-10-13T10:09:13;30.17;;;12.52;;
72569;SDS011;60594;50.204;8.844;2022-10-13T10:11:44;31.15;;;12.95;;
72569;SDS011;60594;50.204;8.844;2022-10-13T10:14:23;29.42;;;13.05;;
72569;SDS011;60594;50.204;8.844;2022-10-13T10:17:03;31.08;;;13.23;;
72569;SDS011;60594;50.204;8.844;2022-10-13T10:20:02;28.92;;;11.27;;
72569;SDS011;60594;50.204;8.844;2022-10-13T10:27:54;26.20;;;12.13;;
72569;SDS011;60594;50.204;8.844;2022-10-13T10:30:23;29.52;;;12.80;;
72569;SDS011;60594;50.204;8.844;2022-10-13T10:36:28;30.02;;;12.75;;
72569;SDS011;60594;50.204;8.844;2022-10-13T10:41:24;24.35;;;11.60;;
72569;SDS011;60594;50.204;8.844;2022-10-13T10:46:41;28.90;;;12.23;;
72569;SDS011;60594;50.204;8.844;2022-10-13T10:49:25;25.77;;;12.10;;
72569;SDS011;60594;50.204;8.844;2022-10-13T10:52:06;27.48;;;11.25;;
72569;SDS011;60594;50.204;8.844;2022-10-13T10:54:48;26.05;;;12.38;;
72569;SDS011;60594;50.204;8.844;2022-10-13T11:00:26;25.77;;;12.68;;
72569;SDS011;60594;50.204;8.844;2022-10-13T11:02:59;31.48;;;12.40;;
72569;SDS011;60594;50.204;8.844;2022-10-13T11:08:46;23.80;;;11.13;;
72569;SDS011;60594;50.204;8.844;2022-10-13T11:14:00;26.15;;;12.32;;
72569;SDS011;60594;50.204;8.844;2022-10-13T11:19:33;23.75;;;10.93;;
72569;SDS011;60594;50.204;8.844;2022-10-13T11:34:59;23.80;;;11.52;;
72569;SDS011;60594;50.204;8.844;2022-10-13T11:40:34;21.73;;;8.57;;
72569;SDS011;60594;50.204;8.844;2022-10-13T11:51:00;16.77;;;7.88;;
72569;SDS011;60594;50.204;8.844;2022-10-13T11:53:42;17.75;;;9.52;;
72569;SDS011;60594;50.204;8.844;2022-10-13T11:56:31;17.50;;;7.88;;
72569;SDS011;60594;50.204;8.844;2022-10-13T11:59:01;19.50;;;8.75;;
72569;SDS011;60594;50.204;8.844;2022-10-13T12:01:27;17.63;;;8.00;;
72569;SDS011;60594;50.204;8.844;2022-10-13T12:03:54;16.30;;;8.50;;
72569;SDS011;60594;50.204;8.844;2022-10-13T12:08:47;17.25;;;8.00;;
72569;SDS011;60594;50.204;8.844;2022-10-13T12:11:26;19.33;;;8.60;;
72569;SDS011;60594;50.204;8.844;2022-10-13T12:13:55;15.48;;;7.85;;
72569;SDS011;60594;50.204;8.844;2022-10-13T12:16:22;21.25;;;8.35;;
72569;SDS011;60594;50.204;8.844;2022-10-13T12:18:49;15.30;;;8.82;;
72569;SDS011;60594;50.204;8.844;2022-10-13T12:21:20;17.20;;;7.82;;
72569;SDS011;60594;50.204;8.844;2022-10-13T12:23:48;17.48;;;8.43;;
72569;SDS011;60594;50.204;8.844;2022-10-13T12:26:20;16.60;;;8.05;;
72569;SDS011;60594;50.204;8.844;2022-10-13T12:28:50;14.65;;;7.60;;
72569;SDS011;60594;50.204;8.844;2022-10-13T12:31:22;16.25;;;8.18;;
72569;SDS011;60594;50.204;8.844;2022-10-13T12:33:52;17.35;;;7.88;;
72569;SDS011;60594;50.204;8.844;2022-10-13T12:36:21;17.05;;;8.63;;
72569;SDS011;60594;50.204;8.844;2022-10-13T12:38:53;16.50;;;8.10;;
72569;SDS011;60594;50.204;8.844;2022-10-13T12:41:24;24.00;;;8.40;;
72569;SDS011;60594;50.204;8.844;2022-10-13T12:43:54;15.20;;;7.80;;
72569;SDS011;60594;50.204;8.844;2022-10-13T12:46:34;17.33;;;7.93;;
72569;SDS011;60594;50.204;8.844;2022-10-13T12:49:11;15.15;;;7.68;;
72569;SDS011;60594;50.204;8.844;2022-10-13T12:52:05;14.13;;;7.47;;
72569;SDS011;60594;50.204;8.844;2022-10-13T12:54:38;17.60;;;6.93;;
72569;SDS011;60594;50.204;8.844;2022-10-13T12:57:19;17.67;;;7.50;;
72569;SDS011;60594;50.204;8.844;2022-10-13T12:59:52;16.02;;;7.60;;
72569;SDS011;60594;50.204;8.844;2022-10-13T13:02:19;15.18;;;7.38;;
72569;SDS011;60594;50.204;8.844;2022-10-13T13:04:49;13.50;;;7.25;;
72569;SDS011;60594;50.204;8.844;2022-10-13T13:12:34;18.52;;;6.90;;
72569;SDS011;60594;50.204;8.844;2022-10-13T13:17:49;15.73;;;7.32;;
72569;SDS011;60594;50.204;8.844;2022-10-13T13:20:21;14.27;;;6.65;;
72569;SDS011;60594;50.204;8.844;2022-10-13T13:22:57;13.60;;;6.47;;
72569;SDS011;60594;50.204;8.844;2022-10-13T13:25:24;15.50;;;7.38;;
72569;SDS011;60594;50.204;8.844;2022-10-13T13:27:51;13.55;;;6.65;;
72569;SDS011;60594;50.204;8.844;2022-10-13T13:30:19;11.48;;;5.75;;
72569;SDS011;60594;50.204;8.844;2022-10-13T13:32:48;15.55;;;5.57;;
72569;SDS011;60594;50.204;8.844;2022-10-13T13:35:14;15.18;;;6.30;;
72569;SDS011;60594;50.204;8.844;2022-10-13T13:37:48;13.05;;;6.30;;
72569;SDS011;60594;50.204;8.844;2022-10-13T13:40:24;14.65;;;6.78;;
72569;SDS011;60594;50.204;8.844;2022-10-13T13:42:53;14.52;;;6.10;;
72569;SDS011;60594;50.204;8.844;2022-10-13T13:45:23;13.05;;;6.10;;
72569;SDS011;60594;50.204;8.844;2022-10-13T13:47:53;13.35;;;5.90;;
72569;SDS011;60594;50.204;8.844;2022-10-13T13:50:23;12.95;;;6.28;;
72569;SDS011;60594;50.204;8.844;2022-10-13T13:52:58;12.55;;;6.13;;
72569;SDS011;60594;50.204;8.844;2022-10-13T13:55:25;10.50;;;5.68;;
72569;SDS011;60594;50.204;8.844;2022-10-13T13:57:54;13.15;;;6.45;;
72569;SDS011;60594;50.204;8.844;2022-10-13T14:00:22;11.15;;;5.63;;
72569;SDS011;60594;50.204;8.844;2022-10-13T14:02:54;11.38;;;5.72;;
72569;SDS011;60594;50.204;8.844;2022-10-13T14:05:23;10.70;;;5.97;;
72569;SDS011;60594;50.204;8.844;2022-10-13T14:08:32;9.50;;;5.30;;
72569;SDS011;60594;50.204;8.844;2022-10-13T14:11:04;13.48;;;6.22;;
72569;SDS011;60594;50.204;8.844;2022-10-13T14:13:31;14.57;;;6.35;;
72569;SDS011;60594;50.204;8.844;2022-10-13T14:15:59;10.95;;;6.78;;
72569;SDS011;60594;50.204;8.844;2022-10-13T14:18:27;13.35;;;5.90;;
72569;SDS011;60594;50.204;8.844;2022-10-13T14:20:54;11.75;;;4.97;;
72569;SDS011;60594;50.204;8.844;2022-10-13T14:23:21;12.30;;;5.75;;
72569;SDS011;60594;50.204;8.844;2022-10-13T14:25:47;9.50;;;4.60;;
72569;SDS011;60594;50.204;8.844;2022-10-13T14:28:15;10.68;;;5.20;;
72569;SDS011;60594;50.204;8.844;2022-10-13T14:30:42;10.82;;;5.43;;
72569;SDS011;60594;50.204;8.844;2022-10-13T14:33:08;15.05;;;6.18;;
72569;SDS011;60594;50.204;8.844;2022-10-13T14:35:34;13.98;;;5.53;;
72569;SDS011;60594;50.204;8.844;2022-10-13T14:38:03;14.93;;;7.32;;
72569;SDS011;60594;50.204;8.844;2022-10-13T14:40:29;9.35;;;5.03;;
72569;SDS011;60594;50.204;8.844;2022-10-13T14:42:56;11.50;;;5.70;;
72569;SDS011;60594;50.204;8.844;2022-10-13T14:45:22;14.57;;;6.15;;
72569;SDS011;60594;50.204;8.844;2022-10-13T14:47:50;11.02;;;5.38;;
72569;SDS011;60594;50.204;8.844;2022-10-13T14:50:17;11.88;;;5.75;;
72569;SDS011;60594;50.204;8.844;2022-10-13T14:52:44;13.30;;;6.85;;
72569;SDS011;60594;50.204;8.844;2022-10-13T14:55:11;13.15;;;6.22;;
72569;SDS011;60594;50.204;8.844;2022-10-13T14:57:38;15.02;;;6.47;;
72569;SDS011;60594;50.204;8.844;2022-10-13T15:00:04;14.55;;;6.22;;
72569;SDS011;60594;50.204;8.844;2022-10-13T15:02:31;12.35;;;6.00;;
72569;SDS011;60594;50.204;8.844;2022-10-13T15:04:57;16.13;;;7.03;;
72569;SDS011;60594;50.204;8.844;2022-10-13T15:07:24;18.92;;;9.68;;
72569;SDS011;60594;50.204;8.844;2022-10-13T15:09:51;17.50;;;8.88;;
72569;SDS011;60594;50.204;8.844;2022-10-13T15:12:17;14.82;;;7.57;;
72569;SDS011;60594;50.204;8.844;2022-10-13T15:14:43;15.10;;;7.38;;
72569;SDS011;60594;50.204;8.844;2022-10-13T15:17:13;13.85;;;7.20;;
72569;SDS011;60594;50.204;8.844;2022-10-13T15:19:40;17.48;;;7.47;;
72569;SDS011;60594;50.204;8.844;2022-10-13T15:22:08;14.73;;;6.88;;
72569;SDS011;60594;50.204;8.844;2022-10-13T15:24:35;12.35;;;6.32;;
72569;SDS011;60594;50.204;8.844;2022-10-13T15:27:02;17.77;;;7.70;;
72569;SDS011;60594;50.204;8.844;2022-10-13T15:29:29;14.90;;;8.13;;
72569;SDS011;60594;50.204;8.844;2022-10-13T15:32:05;15.45;;;7.63;;
72569;SDS011;60594;50.204;8.844;2022-10-13T15:34:34;14.60;;;7.25;;
72569;SDS011;60594;50.204;8.844;2022-10-13T15:37:01;15.27;;;6.97;;
72569;SDS011;60594;50.204;8.844;2022-10-13T15:39:27;17.27;;;8.88;;
72569;SDS011;60594;50.204;8.844;2022-10-13T15:41:54;16.52;;;8.20;;
72569;SDS011;60594;50.204;8.844;2022-10-13T15:44:25;13.82;;;6.97;;
72569;SDS011;60594;50.204;8.844;2022-10-13T15:46:52;14.88;;;7.22;;
72569;SDS011;60594;50.204;8.844;2022-10-13T15:49:23;15.25;;;7.80;;
72569;SDS011;60594;50.204;8.844;2022-10-13T15:51:51;13.13;;;6.68;;
72569;SDS011;60594;50.204;8.844;2022-10-13T15:54:19;19.42;;;7.72;;
72569;SDS011;60594;50.204;8.844;2022-10-13T15:56:45;15.07;;;7.30;;
72569;SDS011;60594;50.204;8.844;2022-10-13T15:59:12;14.85;;;8.18;;
72569;SDS011;60594;50.204;8.844;2022-10-13T16:01:38;15.15;;;7.80;;
72569;SDS011;60594;50.204;8.844;2022-10-13T16:04:06;14.30;;;7.18;;
72569;SDS011;60594;50.204;8.844;2022-10-13T16:06:33;14.27;;;7.35;;
72569;SDS011;60594;50.204;8.844;2022-10-13T16:09:00;14.38;;;7.20;;
72569;SDS011;60594;50.204;8.844;2022-10-13T16:11:27;16.10;;;6.93;;
72569;SDS011;60594;50.204;8.844;2022-10-13T16:13:53;13.48;;;6.90;;
72569;SDS011;60594;50.204;8.844;2022-10-13T16:16:20;15.48;;;7.63;;
72569;SDS011;60594;50.204;8.844;2022-10-13T16:18:47;14.20;;;7.38;;
72569;SDS011;60594;50.204;8.844;2022-10-13T16:21:16;16.08;;;7.88;;
72569;SDS011;60594;50.204;8.844;2022-10-13T16:23:48;15.88;;;8.10;;
72569;SDS011;60594;50.204;8.844;2022-10-13T16:26:15;14.90;;;8.15;;
72569;SDS011;60594;50.204;8.844;2022-10-13T16:28:43;17.65;;;8.48;;
72569;SDS011;60594;50.204;8.844;2022-10-13T16:31:10;19.63;;;8.15;;
72569;SDS011;60594;50.204;8.844;2022-10-13T16:33:42;18.33;;;8.80;;
72569;SDS011;60594;50.204;8.844;2022-10-13T16:36:11;19.85;;;9.95;;
72569;SDS011;60594;50.204;8.844;2022-10-13T16:38:39;18.98;;;8.95;;
72569;SDS011;60594;50.204;8.844;2022-10-13T16:41:07;17.20;;;8.35;;
72569;SDS011;60594;50.204;8.844;2022-10-13T16:43:37;16.25;;;8.57;;